Time;durP1;ratioP1;P1;durP2;ratioP2;P2;SDS_P1;SDS_P2;PMS_P1;PMS_P2;Temp;Humidity;BMP_temperature;BMP_pressure;BME280_temperature;BME280_humidity;BME280_pressure;Samples;Min_cycle;Max_cycle;Signal;HPM_P1;HPM_P2
2024/02/09 00:00:18;;;;;;;;;;;;;;;-0.39;100.00;99008.19;5040708;28;19929;-79
2024/02/09 00:02:52;;;;;;;;;;;;;;;-0.43;100.00;99012.41;5040039;28;19929;-79
2024/02/09 00:05:25;;;;;;;;;;;;;;;-0.47;100.00;99007.78;5039460;28;19932;-79
2024/02/09 00:08:00;;;;;;;;;;;;;;;-0.54;100.00;99016.00;5040400;28;19940;-79
2024/02/09 00:10:36;;;;;;;;;;;;;;;-0.44;100.00;99005.44;5041686;28;19932;-79
2024/02/09 00:13:12;;;;;;;;;;;;;;;-0.60;100.00;99004.44;5041269;28;19925;-79
2024/02/09 00:15:42;;;;;;;;;;;;;;;-0.54;100.00;98997.28;5040638;28;19929;-79
2024/02/09 00:18:16;;;;;;;;;;;;;;;-0.54;100.00;98991.94;5043878;28;19929;-79
2024/02/09 00:20:50;;;;;;;;;;;;;;;-0.47;100.00;98987.25;5041296;28;19933;-79
2024/02/09 00:23:24;;;;;;;;;;;;;;;-0.60;100.00;98980.38;5045866;28;19925;-79
2024/02/09 00:25:52;;;;;;;;;;;;;;;-0.53;100.00;98978.31;5039716;28;19925;-79
2024/02/09 00:28:25;;;;;;;;;;;;;;;-0.57;100.00;98987.09;5040865;28;20281;-79
2024/02/09 00:30:54;;;;;;;;;;;;;;;-0.63;100.00;98980.09;5039446;28;19929;-79
2024/02/09 00:33:29;;;;;;;;;;;;;;;-0.62;100.00;98979.84;5041688;28;19929;-79
2024/02/09 00:36:02;;;;;;;;;;;;;;;-0.59;100.00;98954.50;5041693;28;19935;-79
2024/02/09 00:38:32;;;;;;;;;;;;;;;-0.66;100.00;98956.50;5039989;28;19936;-79
2024/02/09 00:41:07;;;;;;;;;;;;;;;-0.70;100.00;98954.34;5041904;28;19936;-79
2024/02/09 00:43:35;;;;;;;;;;;;;;;-0.66;100.00;98946.66;5042623;28;20004;-79
2024/02/09 00:46:09;;;;;;;;;;;;;;;-0.58;100.00;98930.19;5041647;28;19936;-79
2024/02/09 00:48:38;;;;;;;;;;;;;;;-0.64;100.00;98931.16;5039676;28;20297;-79
2024/02/09 00:51:06;;;;;;;;;;;;;;;-0.70;100.00;98919.63;5042212;28;19929;-79
2024/02/09 00:53:39;;;;;;;;;;;;;;;-0.69;100.00;98909.75;5042764;28;19929;-79
2024/02/09 00:56:07;;;;;;;;;;;;;;;-0.62;100.00;98920.22;5039267;28;19928;-79
2024/02/09 00:58:35;;;;;;;;;;;;;;;-0.66;100.00;98921.78;5043688;28;19925;-79
2024/02/09 01:01:03;;;;;;;;;;;;;;;-0.68;100.00;98927.38;5042641;28;19928;-79
2024/02/09 01:03:38;;;;;;;;;;;;;;;-0.67;100.00;98912.19;5036934;28;19928;-79
2024/02/09 01:06:11;;;;;;;;;;;;;;;-0.69;100.00;98912.44;5041019;28;19929;-79
2024/02/09 01:08:44;;;;;;;;;;;;;;;-0.62;100.00;98915.72;5042539;28;19929;-79
2024/02/09 01:11:12;;;;;;;;;;;;;;;-0.65;100.00;98913.53;5043274;28;19958;-79
2024/02/09 02:46:18;;;;;;;;;;;;;;;-0.80;100.00;98801.16;5042337;28;20278;-79
2024/02/09 03:05:48;;;;;;;;;;;;;;;-0.73;100.00;98745.69;5041713;28;19925;-79
2024/02/09 03:08:16;;;;;;;;;;;;;;;-0.77;100.00;98749.94;5042827;28;20277;-79
2024/02/09 03:10:44;;;;;;;;;;;;;;;-0.76;100.00;98733.66;5044295;28;20297;-80
2024/02/09 03:13:17;;;;;;;;;;;;;;;-0.71;100.00;98741.69;5040162;28;19936;-79
2024/02/09 03:15:52;;;;;;;;;;;;;;;-0.70;100.00;98734.50;5042013;28;19929;-79
2024/02/09 03:18:27;;;;;;;;;;;;;;;-0.77;100.00;98725.91;5036817;28;19937;-79
2024/02/09 03:20:59;;;;;;;;;;;;;;;-0.75;100.00;98715.75;5042879;28;19936;-79
2024/02/09 03:23:32;;;;;;;;;;;;;;;-0.76;100.00;98722.97;5043710;28;19947;-79
2024/02/09 03:26:06;;;;;;;;;;;;;;;-0.80;100.00;98716.53;5044341;28;19935;-79
2024/02/09 03:28:39;;;;;;;;;;;;;;;-0.79;100.00;98706.63;5047940;28;19925;-79
2024/02/09 03:31:15;;;;;;;;;;;;;;;-0.76;100.00;98703.44;5044579;28;19925;-79
2024/02/09 03:33:49;;;;;;;;;;;;;;;-0.77;100.00;98697.31;5046892;28;19939;-79
2024/02/09 03:36:22;;;;;;;;;;;;;;;-0.80;100.00;98692.47;5041489;28;19936;-80
2024/02/09 03:38:50;;;;;;;;;;;;;;;-0.77;100.00;98699.97;5040975;28;20402;-79
2024/02/09 03:41:18;;;;;;;;;;;;;;;-0.77;100.00;98691.97;5043762;28;19928;-79
2024/02/09 03:43:51;;;;;;;;;;;;;;;-0.70;100.00;98683.75;5044171;28;19928;-79
2024/02/09 03:46:25;;;;;;;;;;;;;;;-0.72;100.00;98680.50;5040320;28;20597;-79
2024/02/09 03:48:53;;;;;;;;;;;;;;;-0.76;100.00;98671.41;5041342;28;20508;-79
2024/02/09 03:51:26;;;;;;;;;;;;;;;-0.75;100.00;98683.69;5039182;28;19925;-79
2024/02/09 03:53:54;;;;;;;;;;;;;;;-0.75;100.00;98681.03;5056432;28;20392;-79
2024/02/09 03:56:27;;;;;;;;;;;;;;;-0.75;100.00;98663.13;5038852;28;19936;-79
2024/02/09 03:59:00;;;;;;;;;;;;;;;-0.78;100.00;98666.31;5040306;28;19928;-79
2024/02/09 04:01:29;;;;;;;;;;;;;;;-0.77;100.00;98653.78;5046099;28;19929;-79
2024/02/09 04:04:02;;;;;;;;;;;;;;;-0.73;100.00;98652.22;5039807;28;19929;-79
2024/02/09 04:06:35;;;;;;;;;;;;;;;-0.76;100.00;98650.03;5045936;28;19925;-79
2024/02/09 04:09:08;;;;;;;;;;;;;;;-0.80;100.00;98647.06;5045933;28;19929;-79
2024/02/09 04:11:36;;;;;;;;;;;;;;;-0.78;100.00;98644.16;5039534;28;19929;-79
2024/02/09 04:14:04;;;;;;;;;;;;;;;-0.73;100.00;98639.66;5043801;28;20406;-79
2024/02/09 04:16:39;;;;;;;;;;;;;;;-0.81;100.00;98645.47;5038202;28;19996;-79
2024/02/09 04:19:14;;;;;;;;;;;;;;;-0.81;100.00;98640.13;5041060;28;19936;-79
2024/02/09 04:21:48;;;;;;;;;;;;;;;-0.81;100.00;98647.34;5043018;28;20282;-79
2024/02/09 04:24:16;;;;;;;;;;;;;;;-0.88;100.00;98643.00;5042233;28;19925;-79
2024/02/09 04:26:45;;;;;;;;;;;;;;;-0.87;100.00;98633.13;5038760;28;19929;-79
2024/02/09 04:29:18;;;;;;;;;;;;;;;-0.89;100.00;98636.03;5042313;28;19928;-79
2024/02/09 04:31:52;;;;;;;;;;;;;;;-0.90;100.00;98625.63;5039486;28;20000;-79
2024/02/09 04:34:23;;;;;;;;;;;;;;;-0.87;100.00;98619.75;5041402;28;19928;-79
2024/02/09 04:36:56;;;;;;;;;;;;;;;-0.83;100.00;98618.19;5038722;28;19932;-79
2024/02/09 04:39:29;;;;;;;;;;;;;;;-0.87;100.00;98615.25;5039678;28;19925;-79
2024/02/09 04:41:57;;;;;;;;;;;;;;;-0.87;100.00;98614.41;5040653;28;19932;-79
2024/02/09 04:44:33;;;;;;;;;;;;;;;-0.93;100.00;98602.09;5042734;28;19932;-79
2024/02/09 04:47:02;;;;;;;;;;;;;;;-0.89;100.00;98606.66;5047751;28;19924;-79
2024/02/09 04:49:35;;;;;;;;;;;;;;;-0.93;100.00;98591.41;5055207;28;19924;-79
2024/02/09 04:52:11;;;;;;;;;;;;;;;-0.93;100.00;98602.09;5045788;28;19928;-79
2024/02/09 04:54:39;;;;;;;;;;;;;;;-0.89;100.00;98587.19;5042260;28;19929;-79
2024/02/09 04:57:12;;;;;;;;;;;;;;;-0.89;100.00;98584.50;5040083;28;19933;-79
2024/02/09 04:59:45;;;;;;;;;;;;;;;-0.92;100.00;98587.69;5037953;28;19948;-79
2024/02/09 05:02:15;;;;;;;;;;;;;;;-0.93;100.00;98586.09;5038765;28;19929;-79
2024/02/09 05:04:48;;;;;;;;;;;;;;;-0.89;100.00;98571.94;5040583;28;19929;-79
2024/02/09 05:07:21;;;;;;;;;;;;;;;-0.98;100.00;98557.50;5037342;28;19935;-79
2024/02/09 05:09:54;;;;;;;;;;;;;;;-0.94;100.00;98555.09;5043024;28;19928;-79
2024/02/09 05:12:30;;;;;;;;;;;;;;;-0.92;100.00;98559.13;5047274;28;19928;-79
2024/02/09 05:14:58;;;;;;;;;;;;;;;-0.93;100.00;98548.69;5044457;28;19929;-79
2024/02/09 05:17:33;;;;;;;;;;;;;;;-0.95;100.00;98545.47;5039076;28;19929;-79
2024/02/09 05:20:01;;;;;;;;;;;;;;;-0.98;100.00;98544.13;5032133;28;20582;-80
2024/02/09 05:22:29;;;;;;;;;;;;;;;-0.94;100.00;98542.56;5041695;28;20381;-80
2024/02/09 05:24:57;;;;;;;;;;;;;;;-0.93;100.00;98544.16;5040363;28;20328;-79
2024/02/09 05:27:25;;;;;;;;;;;;;;;-0.92;100.00;98527.06;5040137;28;19933;-79
2024/02/09 05:29:58;;;;;;;;;;;;;;;-0.96;100.00;98517.97;5042411;28;19936;-79
2024/02/09 05:32:32;;;;;;;;;;;;;;;-0.94;100.00;98515.88;5039161;28;19929;-79
2024/02/09 05:35:06;;;;;;;;;;;;;;;-0.89;100.00;98515.88;5045589;28;19929;-79
2024/02/09 05:37:34;;;;;;;;;;;;;;;-0.89;100.00;98515.09;5036070;28;19933;-79
2024/02/09 05:40:02;;;;;;;;;;;;;;;-0.92;100.00;98515.59;5054908;28;19925;-79
2024/02/09 05:42:35;;;;;;;;;;;;;;;-0.94;100.00;98491.84;5041003;28;19939;-79
2024/02/09 05:45:08;;;;;;;;;;;;;;;-0.92;100.00;98492.38;5038642;28;19936;-79
2024/02/09 05:47:43;;;;;;;;;;;;;;;-0.92;100.00;98489.69;5039152;28;19925;-79
2024/02/09 05:50:11;;;;;;;;;;;;;;;-0.91;100.00;98507.34;5040245;28;19932;-79
2024/02/09 05:52:38;;;;;;;;;;;;;;;-0.95;100.00;98492.06;5040846;28;19928;-79
2024/02/09 05:55:09;;;;;;;;;;;;;;;-0.91;100.00;98487.81;5034820;28;19929;-79
2024/02/09 05:57:42;;;;;;;;;;;;;;;-0.93;100.00;98493.41;5040226;28;19984;-80
2024/02/09 06:00:15;;;;;;;;;;;;;;;-0.96;100.00;98498.50;5041063;28;19928;-79
2024/02/09 06:02:51;;;;;;;;;;;;;;;-0.96;100.00;98496.63;5035091;28;20667;-79
2024/02/09 06:05:24;;;;;;;;;;;;;;;-0.97;100.00;98487.00;5039225;28;19936;-79
2024/02/09 06:07:56;;;;;;;;;;;;;;;-0.97;100.00;98500.34;5042554;28;19925;-79
2024/02/09 06:10:30;;;;;;;;;;;;;;;-0.97;100.00;98499.53;5039167;28;19936;-79
2024/02/09 06:13:03;;;;;;;;;;;;;;;-0.98;100.00;98496.09;5040543;28;19928;-79
2024/02/09 06:15:37;;;;;;;;;;;;;;;-0.97;100.00;98504.88;5044713;28;20502;-79
2024/02/09 06:18:06;;;;;;;;;;;;;;;-0.99;100.00;98491.00;5038264;28;20281;-80
2024/02/09 06:20:39;;;;;;;;;;;;;;;-0.99;100.00;98494.47;5041633;28;19935;-80
2024/02/09 06:23:12;;;;;;;;;;;;;;;-0.96;100.00;98493.16;5045933;28;19928;-80
2024/02/09 06:25:45;;;;;;;;;;;;;;;-0.99;100.00;98491.78;5039620;28;19933;-79
2024/02/09 06:28:19;;;;;;;;;;;;;;;-0.94;100.00;98491.00;5045330;28;19936;-79
2024/02/09 06:30:47;;;;;;;;;;;;;;;-0.92;100.00;98496.91;5044573;28;19933;-79
2024/02/09 06:33:21;;;;;;;;;;;;;;;-0.99;100.00;98491.78;5046828;28;19936;-78
2024/02/09 06:35:54;;;;;;;;;;;;;;;-1.01;100.00;98493.91;5043587;28;19936;-79
2024/02/09 06:38:27;;;;;;;;;;;;;;;-0.99;100.00;98483.78;5045065;28;19936;-79
2024/02/09 06:41:00;;;;;;;;;;;;;;;-0.95;100.00;98489.41;5043299;28;19936;-79
2024/02/09 06:43:33;;;;;;;;;;;;;;;-1.00;100.00;98484.84;5041856;28;19932;-79
2024/02/09 06:46:06;;;;;;;;;;;;;;;-0.96;100.00;98477.91;5044932;28;19925;-79
2024/02/09 06:48:36;;;;;;;;;;;;;;;-0.99;100.00;98481.13;5042083;28;19929;-80
2024/02/09 06:51:10;;;;;;;;;;;;;;;-0.98;100.00;98476.56;5049321;28;19932;-80
2024/02/09 06:53:43;;;;;;;;;;;;;;;-0.99;100.00;98472.31;5045423;28;19929;-79
2024/02/09 06:56:16;;;;;;;;;;;;;;;-0.98;100.00;98480.06;5045544;28;19928;-80
2024/02/09 06:58:45;;;;;;;;;;;;;;;-0.98;100.00;98472.06;5041471;28;20015;-79
2024/02/09 07:01:13;;;;;;;;;;;;;;;-0.97;100.00;98483.53;5039037;28;19940;-79
2024/02/09 07:03:49;;;;;;;;;;;;;;;-0.97;100.00;98481.66;5042112;28;20402;-79
2024/02/09 07:06:22;;;;;;;;;;;;;;;-0.97;100.00;98491.53;5043409;28;19936;-80
2024/02/09 07:08:53;;;;;;;;;;;;;;;-0.98;100.00;98488.06;5043880;28;20517;-79
2024/02/09 07:11:21;;;;;;;;;;;;;;;-0.99;100.00;98486.47;5055578;28;19929;-80
2024/02/09 07:13:49;;;;;;;;;;;;;;;-0.97;100.00;98486.19;5043899;28;19933;-80
2024/02/09 07:16:22;;;;;;;;;;;;;;;-0.96;100.00;98487.81;5044560;28;19925;-80
2024/02/09 07:18:56;;;;;;;;;;;;;;;-0.95;100.00;98478.72;5039050;28;19943;-80
2024/02/09 07:21:24;;;;;;;;;;;;;;;-0.95;100.00;98484.88;5047791;28;20688;-79
2024/02/09 07:23:58;;;;;;;;;;;;;;;-0.92;100.00;98478.22;5042845;28;19936;-80
2024/02/09 07:26:26;;;;;;;;;;;;;;;-0.95;100.00;98470.72;5046953;28;19929;-79
2024/02/09 07:28:54;;;;;;;;;;;;;;;-0.85;100.00;98481.47;5042935;28;19929;-80
2024/02/09 07:31:22;;;;;;;;;;;;;;;-0.93;100.00;98465.94;5060060;28;19929;-80
2024/02/09 07:33:57;;;;;;;;;;;;;;;-0.94;100.00;98466.97;5058656;28;19948;-79
2024/02/09 07:36:30;;;;;;;;;;;;;;;-0.89;100.00;98467.81;5041934;28;20251;-80
2024/02/09 07:38:58;;;;;;;;;;;;;;;-0.89;100.00;98469.69;5040106;28;19943;-80
2024/02/09 07:41:31;;;;;;;;;;;;;;;-0.89;100.00;98462.47;5040431;28;19944;-80
2024/02/09 07:44:01;;;;;;;;;;;;;;;-0.87;100.00;98467.53;5040141;28;19930;-80
2024/02/09 07:46:34;;;;;;;;;;;;;;;-0.88;100.00;98461.41;5040977;28;19929;-80
2024/02/09 07:49:08;;;;;;;;;;;;;;;-0.88;100.00;98464.09;5040699;28;19932;-80
2024/02/09 07:51:43;;;;;;;;;;;;;;;-0.88;100.00;98457.94;5040889;28;19936;-80
2024/02/09 07:54:11;;;;;;;;;;;;;;;-0.87;100.00;98465.69;5039620;28;19935;-80
2024/02/09 07:56:39;;;;;;;;;;;;;;;-0.81;100.00;98453.19;5035408;28;20309;-80
2024/02/09 07:59:11;;;;;;;;;;;;;;;-0.83;100.00;98452.63;5036871;28;19936;-79
2024/02/09 08:01:44;;;;;;;;;;;;;;;-0.83;100.00;98451.81;5039642;28;19933;-80
2024/02/09 08:04:14;;;;;;;;;;;;;;;-0.79;100.00;98447.56;5039106;28;19924;-80
2024/02/09 08:06:42;;;;;;;;;;;;;;;-0.82;100.00;98443.53;5036034;28;19929;-79
2024/02/09 08:09:15;;;;;;;;;;;;;;;-0.79;100.00;98442.22;5037292;28;19928;-79
2024/02/09 08:11:48;;;;;;;;;;;;;;;-0.83;100.00;98438.47;5039033;28;19925;-79
2024/02/09 08:14:16;;;;;;;;;;;;;;;-0.81;100.00;98431.03;5037762;28;20310;-79
2024/02/09 08:16:49;;;;;;;;;;;;;;;-0.76;100.00;98433.69;5043395;28;19932;-79
2024/02/09 08:19:32;;;;;;;;;;;;;;;-0.80;100.00;98422.75;5039894;28;19928;-80
2024/02/09 08:22:00;;;;;;;;;;;;;;;-0.82;100.00;98414.16;5042226;28;19933;-81
2024/02/09 08:24:33;;;;;;;;;;;;;;;-0.78;100.00;98411.78;5040641;28;19937;-80
2024/02/09 08:27:07;;;;;;;;;;;;;;;-0.75;100.00;98419.28;5009517;28;19932;-81
2024/02/09 08:29:35;;;;;;;;;;;;;;;-0.75;100.00;98413.94;5024215;28;19940;-80
2024/02/09 08:32:08;;;;;;;;;;;;;;;-0.73;100.00;98404.59;5023196;28;19933;-79
2024/02/09 08:34:37;;;;;;;;;;;;;;;-0.76;100.00;98413.16;5016031;28;19933;-80
2024/02/09 08:37:05;;;;;;;;;;;;;;;-0.76;100.00;98407.81;5025117;28;20783;-79
2024/02/09 08:39:33;;;;;;;;;;;;;;;-0.74;100.00;98399.53;5033252;28;19933;-84
2024/02/09 08:42:07;;;;;;;;;;;;;;;-0.77;100.00;98402.72;5016333;28;19933;-81
2024/02/09 08:44:40;;;;;;;;;;;;;;;-0.77;100.00;98410.75;5022744;28;19933;-80
2024/02/09 08:47:14;;;;;;;;;;;;;;;-0.76;100.00;98401.63;5018461;28;19939;-80
2024/02/09 08:49:44;;;;;;;;;;;;;;;-0.80;100.00;98409.38;5032193;28;19939;-81
2024/02/09 08:52:17;;;;;;;;;;;;;;;-0.81;100.00;98394.41;5020090;28;19933;-80
2024/02/09 08:54:46;;;;;;;;;;;;;;;-0.77;100.00;98384.81;5015285;28;19940;-80
2024/02/09 08:57:14;;;;;;;;;;;;;;;-0.74;100.00;98386.16;5025348;28;19933;-81
2024/02/09 08:59:49;;;;;;;;;;;;;;;-0.76;100.00;98380.28;5024107;28;19932;-81
2024/02/09 09:02:17;;;;;;;;;;;;;;;-0.80;100.00;98377.34;5022891;28;21562;-80
2024/02/09 09:04:46;;;;;;;;;;;;;;;-0.70;100.00;98369.34;5028398;28;19928;-79
2024/02/09 09:07:19;;;;;;;;;;;;;;;-0.71;100.00;98364.28;5023781;28;19933;-82
2024/02/09 09:09:47;;;;;;;;;;;;;;;-0.71;100.00;98366.94;5022782;28;19940;-81
2024/02/09 09:12:21;;;;;;;;;;;;;;;-0.71;100.00;98362.38;5024716;28;19940;-81
2024/02/09 09:14:53;;;;;;;;;;;;;;;-0.73;100.00;98363.75;5026462;28;21389;-81
2024/02/09 09:17:26;;;;;;;;;;;;;;;-0.77;100.00;98362.66;5024500;28;19933;-80
2024/02/09 09:20:01;;;;;;;;;;;;;;;-0.67;100.00;98362.69;5027376;28;20589;-81
2024/02/09 09:22:34;;;;;;;;;;;;;;;-0.72;100.00;98362.66;5017018;28;19933;-80
2024/02/09 09:25:06;;;;;;;;;;;;;;;-0.70;100.00;98363.22;5015000;28;19943;-80
2024/02/09 09:27:39;;;;;;;;;;;;;;;-0.73;100.00;98353.84;4992046;28;19929;-79
2024/02/09 09:30:08;;;;;;;;;;;;;;;-0.70;100.00;98355.19;5028429;28;20333;-80
2024/02/09 09:32:37;;;;;;;;;;;;;;;-0.71;100.00;98351.72;5027330;28;19933;-82
2024/02/09 09:35:08;;;;;;;;;;;;;;;-0.67;100.00;98351.19;5022180;28;20813;-80
2024/02/09 09:37:40;;;;;;;;;;;;;;;-0.60;100.00;98347.19;5022341;28;19933;-80
2024/02/09 09:40:13;;;;;;;;;;;;;;;-0.65;100.00;98335.69;5023168;28;19940;-82
2024/02/09 09:42:46;;;;;;;;;;;;;;;-0.63;100.00;98344.28;5016882;28;19959;-80
2024/02/09 09:45:19;;;;;;;;;;;;;;;-0.64;100.00;98348.78;5021201;28;19939;-80
2024/02/09 09:47:47;;;;;;;;;;;;;;;-0.59;100.00;98350.69;5024006;28;20601;-81
2024/02/09 09:50:22;;;;;;;;;;;;;;;-0.62;100.00;98343.19;5019165;28;19944;-80
2024/02/09 09:52:53;;;;;;;;;;;;;;;-0.63;100.00;98339.72;5027719;28;19932;-80
2024/02/09 09:55:21;;;;;;;;;;;;;;;-0.57;100.00;98353.88;5025861;28;19940;-81
2024/02/09 09:57:50;;;;;;;;;;;;;;;-0.59;100.00;98350.69;5022621;28;19933;-80
2024/02/09 10:00:19;;;;;;;;;;;;;;;-0.60;100.00;98351.75;5025134;28;19975;-80
2024/02/09 10:02:49;;;;;;;;;;;;;;;-0.58;100.00;98347.75;5023284;28;19944;-81
2024/02/09 10:05:19;;;;;;;;;;;;;;;-0.63;100.00;98347.72;5029508;28;20394;-80
2024/02/09 10:07:48;;;;;;;;;;;;;;;-0.53;100.00;98354.97;5020741;28;19929;-80
2024/02/09 10:10:22;;;;;;;;;;;;;;;-0.53;100.00;98355.75;5036487;28;19933;-80
2024/02/09 10:13:02;;;;;;;;;;;;;;;-0.61;100.00;98342.91;5019452;28;19933;-80
2024/02/09 10:15:30;;;;;;;;;;;;;;;-0.61;100.00;98352.81;5030735;28;19933;-81
2024/02/09 10:18:03;;;;;;;;;;;;;;;-0.56;100.00;98342.13;5023094;28;19948;-81
2024/02/09 10:20:31;;;;;;;;;;;;;;;-0.53;100.00;98349.63;5015750;28;19940;-80
2024/02/09 10:23:03;;;;;;;;;;;;;;;-0.55;100.00;98349.88;5023211;28;19943;-81
2024/02/09 10:25:31;;;;;;;;;;;;;;;-0.57;100.00;98335.97;4984526;28;19940;-80
2024/02/09 10:28:04;;;;;;;;;;;;;;;-0.57;100.00;98343.19;5024987;28;20682;-79
2024/02/09 10:30:37;;;;;;;;;;;;;;;-0.53;100.00;98333.59;5023303;28;19940;-81
2024/02/09 10:33:11;;;;;;;;;;;;;;;-0.46;100.00;98334.13;5021880;28;19932;-79
2024/02/09 10:35:44;;;;;;;;;;;;;;;-0.50;100.00;98332.25;5028797;28;21233;-79
2024/02/09 10:38:18;;;;;;;;;;;;;;;-0.39;100.00;98328.53;5018631;28;19932;-78
2024/02/09 10:40:48;;;;;;;;;;;;;;;-0.39;100.00;98326.69;5030733;28;19940;-80
2024/02/09 10:43:22;;;;;;;;;;;;;;;-0.37;100.00;98326.41;5014190;28;19940;-80
2024/02/09 10:45:51;;;;;;;;;;;;;;;-0.42;100.00;98316.50;5021698;28;20023;-80
2024/02/09 10:48:21;;;;;;;;;;;;;;;-0.35;100.00;98317.06;5015594;28;19933;-80
2024/02/09 10:50:55;;;;;;;;;;;;;;;-0.40;100.00;98324.25;5023527;28;19932;-80
2024/02/09 10:53:29;;;;;;;;;;;;;;;-0.42;100.00;98324.53;5018452;28;19940;-80
2024/02/09 10:56:03;;;;;;;;;;;;;;;-0.44;100.00;98321.31;5021271;28;19933;-80
2024/02/09 10:58:37;;;;;;;;;;;;;;;-0.40;100.00;98325.06;5028407;28;19940;-80
2024/02/09 11:01:05;;;;;;;;;;;;;;;-0.39;100.00;98320.50;5020824;28;19929;-80
2024/02/09 11:03:38;;;;;;;;;;;;;;;-0.38;100.00;98312.22;5022389;28;20566;-81
2024/02/09 11:06:06;;;;;;;;;;;;;;;-0.40;100.00;98305.53;5022738;28;19933;-81
2024/02/09 11:08:36;;;;;;;;;;;;;;;-0.48;100.00;98308.75;5020343;28;20305;-80
2024/02/09 11:11:05;;;;;;;;;;;;;;;-0.42;100.00;98300.47;5027914;28;19954;-79
2024/02/09 11:13:38;;;;;;;;;;;;;;;-0.38;100.00;98298.06;5025546;28;19933;-80
2024/02/09 11:16:11;;;;;;;;;;;;;;;-0.35;100.00;98292.19;5022542;28;19944;-80
2024/02/09 11:18:44;;;;;;;;;;;;;;;-0.44;100.00;98289.25;5025997;28;19933;-80
2024/02/09 11:21:12;;;;;;;;;;;;;;;-0.49;100.00;98285.78;5030701;28;20616;-80
2024/02/09 11:23:47;;;;;;;;;;;;;;;-0.36;100.00;98290.59;5025234;28;19933;-80
2024/02/09 11:26:15;;;;;;;;;;;;;;;-0.42;100.00;98283.66;5003067;28;19932;-80
2024/02/09 11:28:43;;;;;;;;;;;;;;;-0.41;100.00;98286.03;5022477;28;20007;-81
2024/02/09 11:31:11;;;;;;;;;;;;;;;-0.42;100.00;98279.09;5027121;28;19963;-79
2024/02/09 11:33:41;;;;;;;;;;;;;;;-0.38;100.00;98274.03;5031116;28;19936;-81
2024/02/09 11:36:15;;;;;;;;;;;;;;;-0.34;100.00;98272.41;5029219;28;19932;-80
2024/02/09 11:38:43;;;;;;;;;;;;;;;-0.33;100.00;98273.22;5026566;28;19933;-81
2024/02/09 11:41:12;;;;;;;;;;;;;;;-0.27;100.00;98266.81;5019727;28;19932;-81
2024/02/09 11:43:45;;;;;;;;;;;;;;;-0.29;100.00;98264.41;5025722;28;19936;-80
2024/02/09 11:46:19;;;;;;;;;;;;;;;-0.26;100.00;98263.06;5024066;28;19933;-80
2024/02/09 11:48:52;;;;;;;;;;;;;;;-0.32;100.00;98256.91;5019276;28;21285;-80
2024/02/09 11:51:21;;;;;;;;;;;;;;;-0.33;100.00;98252.66;5028851;28;19944;-80
2024/02/09 11:53:52;;;;;;;;;;;;;;;-0.26;100.00;98263.06;5025250;28;19933;-80
2024/02/09 11:56:26;;;;;;;;;;;;;;;-0.28;100.00;98263.31;5026452;28;19929;-80
2024/02/09 11:59:03;;;;;;;;;;;;;;;-0.24;100.00;98259.03;5022490;28;19940;-80
2024/02/09 12:01:31;;;;;;;;;;;;;;;-0.28;100.00;98257.19;5027214;28;20373;-80
2024/02/09 12:04:00;;;;;;;;;;;;;;;-0.19;100.00;98260.94;5025723;28;21456;-80
2024/02/09 12:06:29;;;;;;;;;;;;;;;-0.21;100.00;98260.38;5029740;28;19943;-80
2024/02/09 12:08:57;;;;;;;;;;;;;;;-0.22;100.00;98258.78;5019742;28;20024;-81
2024/02/09 12:11:27;;;;;;;;;;;;;;;-0.16;100.00;98254.25;5027498;28;20593;-81
2024/02/09 12:13:55;;;;;;;;;;;;;;;-0.06;100.00;98255.00;5031168;28;20333;-80
2024/02/09 12:16:28;;;;;;;;;;;;;;;-0.11;100.00;98240.84;5024086;28;19933;-80
2024/02/09 12:19:01;;;;;;;;;;;;;;;0.06;100.00;98244.03;5029082;28;19932;-81
2024/02/09 12:21:34;;;;;;;;;;;;;;;-0.07;100.00;98245.41;5025324;28;19932;-80
2024/02/09 12:24:09;;;;;;;;;;;;;;;-0.10;100.00;98231.78;5021094;28;19933;-81
2024/02/09 12:26:44;;;;;;;;;;;;;;;-0.07;100.00;98229.38;4996861;28;19937;-81
2024/02/09 12:29:17;;;;;;;;;;;;;;;-0.12;100.00;98228.59;5022122;28;20309;-81
2024/02/09 12:31:47;;;;;;;;;;;;;;;0.02;100.00;98223.47;5023301;28;19933;-81
2024/02/09 12:34:20;;;;;;;;;;;;;;;-0.01;100.00;98219.47;5000138;28;19943;-81
2024/02/09 12:36:55;;;;;;;;;;;;;;;0.08;100.00;98223.16;5040141;28;19940;-80
2024/02/09 12:39:23;;;;;;;;;;;;;;;0.10;100.00;98223.72;5024943;28;19940;-81
2024/02/09 12:41:59;;;;;;;;;;;;;;;0.13;100.00;98214.34;5020380;28;19932;-81
2024/02/09 12:44:30;;;;;;;;;;;;;;;0.10;100.00;98214.91;5024035;28;19932;-80
2024/02/09 12:47:03;;;;;;;;;;;;;;;0.07;100.00;98208.22;5020549;28;19940;-81
2024/02/09 12:49:36;;;;;;;;;;;;;;;0.22;100.00;98204.69;5021838;28;20671;-81
2024/02/09 12:52:14;;;;;;;;;;;;;;;0.22;100.00;98202.03;5024418;28;19928;-81
2024/02/09 12:54:47;;;;;;;;;;;;;;;0.18;100.00;98206.31;5027197;28;19940;-81
2024/02/09 12:57:22;;;;;;;;;;;;;;;0.17;100.00;98199.34;5027474;28;19933;-81
2024/02/09 12:59:54;;;;;;;;;;;;;;;0.14;100.00;98194.56;5026912;28;19939;-81
2024/02/09 13:02:28;;;;;;;;;;;;;;;0.07;100.00;98199.38;5020426;28;19936;-81
2024/02/09 13:04:56;;;;;;;;;;;;;;;0.10;100.00;98194.28;5030523;28;19928;-81
2024/02/09 13:07:24;;;;;;;;;;;;;;;0.10;100.00;98196.19;5024375;28;19932;-81
2024/02/09 13:09:51;;;;;;;;;;;;;;;0.14;100.00;98192.69;5023970;28;19979;-80
2024/02/09 13:12:26;;;;;;;;;;;;;;;0.15;100.00;98196.97;5021148;28;20439;-81
2024/02/09 13:15:01;;;;;;;;;;;;;;;0.20;100.00;98196.13;5020316;28;19944;-80
2024/02/09 13:17:35;;;;;;;;;;;;;;;0.17;100.00;98194.78;5016179;28;19939;-80
2024/02/09 13:20:05;;;;;;;;;;;;;;;0.27;100.00;98191.28;5014712;28;19940;-80
2024/02/09 13:22:33;;;;;;;;;;;;;;;0.25;100.00;98197.97;5017152;28;19932;-82
2024/02/09 13:25:01;;;;;;;;;;;;;;;0.29;100.00;98194.50;5017405;28;20301;-82
2024/02/09 13:27:36;;;;;;;;;;;;;;;0.25;100.00;98188.09;4999742;28;19936;-82
2024/02/09 13:30:07;;;;;;;;;;;;;;;0.23;100.00;98198.25;5019677;28;19933;-80
2024/02/09 13:32:40;;;;;;;;;;;;;;;0.28;100.00;98192.91;5017225;28;20007;-80
2024/02/09 13:35:11;;;;;;;;;;;;;;;0.25;100.00;98182.75;5019732;28;19933;-80
2024/02/09 13:37:45;;;;;;;;;;;;;;;0.29;100.00;98182.97;5025726;28;19944;-79
2024/02/09 13:40:18;;;;;;;;;;;;;;;0.28;100.00;98182.19;5023869;28;19933;-80
2024/02/09 13:42:49;;;;;;;;;;;;;;;0.33;100.00;98182.19;5023784;28;19944;-80
2024/02/09 13:45:23;;;;;;;;;;;;;;;0.33;100.00;98186.72;5011995;28;19932;-80
2024/02/09 13:47:52;;;;;;;;;;;;;;;0.40;100.00;98187.25;5015170;28;19933;-80
2024/02/09 13:50:23;;;;;;;;;;;;;;;0.43;100.00;98188.53;5020481;28;21183;-80
2024/02/09 13:52:56;;;;;;;;;;;;;;;0.45;100.00;98178.38;5027320;28;19940;-80
2024/02/09 13:55:25;;;;;;;;;;;;;;;0.41;100.00;98167.41;5023276;28;19940;-80
2024/02/09 13:57:54;;;;;;;;;;;;;;;0.39;100.00;98174.94;5021558;28;19940;-80
2024/02/09 14:00:24;;;;;;;;;;;;;;;0.40;100.00;98167.69;5030232;28;19940;-80
2024/02/09 14:02:57;;;;;;;;;;;;;;;0.42;100.00;98173.59;5027390;28;19932;-80
2024/02/09 14:05:30;;;;;;;;;;;;;;;0.39;100.00;98174.94;5021372;28;20755;-80
2024/02/09 14:08:04;;;;;;;;;;;;;;;0.39;100.00;98174.94;5017244;28;19932;-80
2024/02/09 14:10:32;;;;;;;;;;;;;;;0.45;100.00;98173.03;5033150;28;20515;-80
2024/02/09 14:13:01;;;;;;;;;;;;;;;0.46;100.00;98169.28;5027118;28;19933;-81
2024/02/09 14:15:29;;;;;;;;;;;;;;;0.45;100.00;98173.03;5026349;28;19939;-80
2024/02/09 14:17:57;;;;;;;;;;;;;;;0.52;100.00;98159.34;5029590;28;19932;-80
2024/02/09 14:20:25;;;;;;;;;;;;;;;0.55;100.00;98167.63;5025468;28;19932;-80
2024/02/09 14:22:59;;;;;;;;;;;;;;;0.49;100.00;98171.41;5027050;28;19932;-80
2024/02/09 14:25:32;;;;;;;;;;;;;;;0.52;100.00;98170.06;5019597;28;19932;-80
2024/02/09 14:28:08;;;;;;;;;;;;;;;0.50;100.00;98178.38;5014389;28;19933;-80
2024/02/09 14:30:42;;;;;;;;;;;;;;;0.49;100.00;98177.53;5022773;28;19933;-80
2024/02/09 14:33:14;;;;;;;;;;;;;;;0.56;100.00;98177.25;5031343;28;20512;-80
2024/02/09 14:35:48;;;;;;;;;;;;;;;0.50;100.00;98173.00;5024528;28;19932;-80
2024/02/09 14:38:21;;;;;;;;;;;;;;;0.52;100.00;98178.09;5023377;28;19933;-81
2024/02/09 14:40:54;;;;;;;;;;;;;;;0.53;100.00;98172.47;5019778;28;19932;-80
2024/02/09 14:43:25;;;;;;;;;;;;;;;0.61;100.00;98179.13;5030166;28;19940;-80
2024/02/09 14:46:00;;;;;;;;;;;;;;;0.57;100.00;98170.84;5028051;28;20020;-81
2024/02/09 14:48:34;;;;;;;;;;;;;;;0.70;100.00;98177.44;5025966;28;20733;-81